sensor_id;sensor_type;location;lat;lon;timestamp;pressure;altitude;pressure_sealevel;temperature;humidity
15263;BME280;7733;51.554;13.590;2022-07-29T00:01:21;100668.06;;;19.86;47.55
15263;BME280;7733;51.554;13.590;2022-07-29T00:03:47;100668.09;;;20.03;47.19
15263;BME280;7733;51.554;13.590;2022-07-29T00:06:14;100662.06;;;19.81;47.50
15263;BME280;7733;51.554;13.590;2022-07-29T00:08:40;100664.16;;;20.29;45.87
15263;BME280;7733;51.554;13.590;2022-07-29T00:11:06;100669.66;;;19.51;48.42
15263;BME280;7733;51.554;13.590;2022-07-29T00:13:32;100649.75;;;19.97;46.73
15263;BME280;7733;51.554;13.590;2022-07-29T00:15:57;100658.34;;;19.85;46.99
15263;BME280;7733;51.554;13.590;2022-07-29T00:18:23;100668.63;;;19.55;48.13
15263;BME280;7733;51.554;13.590;2022-07-29T00:20:49;100659.84;;;19.90;47.05
15263;BME280;7733;51.554;13.590;2022-07-29T00:23:14;100642.38;;;19.85;47.34
15263;BME280;7733;51.554;13.590;2022-07-29T00:25:40;100648.25;;;19.72;47.38
15263;BME280;7733;51.554;13.590;2022-07-29T00:28:06;100653.44;;;19.75;47.24
15263;BME280;7733;51.554;13.590;2022-07-29T00:30:31;100640.66;;;19.65;48.00
15263;BME280;7733;51.554;13.590;2022-07-29T00:32:57;100639.63;;;19.86;46.84
15263;BME280;7733;51.554;13.590;2022-07-29T00:35:23;100640.38;;;19.32;48.80
15263;BME280;7733;51.554;13.590;2022-07-29T00:38:07;100633.72;;;19.61;48.14
15263;BME280;7733;51.554;13.590;2022-07-29T00:40:33;100635.19;;;19.68;47.68
15263;BME280;7733;51.554;13.590;2022-07-29T00:42:59;100633.13;;;19.35;48.63
15263;BME280;7733;51.554;13.590;2022-07-29T00:45:25;100633.69;;;19.04;49.75
15263;BME280;7733;51.554;13.590;2022-07-29T00:47:51;100630.84;;;19.47;48.44
15263;BME280;7733;51.554;13.590;2022-07-29T00:50:17;100630.22;;;19.02;49.45
15263;BME280;7733;51.554;13.590;2022-07-29T00:52:43;100634.78;;;18.99;49.92
15263;BME280;7733;51.554;13.590;2022-07-29T00:55:12;100633.56;;;18.67;51.18
15263;BME280;7733;51.554;13.590;2022-07-29T00:57:40;100632.09;;;18.80;50.36
15263;BME280;7733;51.554;13.590;2022-07-29T01:00:11;100631.75;;;18.88;50.72
15263;BME280;7733;51.554;13.590;2022-07-29T01:02:37;100631.28;;;18.98;50.34
15263;BME280;7733;51.554;13.590;2022-07-29T01:05:05;100628.69;;;18.76;50.87
15263;BME280;7733;51.554;13.590;2022-07-29T01:07:36;100629.84;;;18.29;52.59
15263;BME280;7733;51.554;13.590;2022-07-29T01:10:09;100623.22;;;18.39;51.91
15263;BME280;7733;51.554;13.590;2022-07-29T01:12:37;100613.44;;;18.39;52.30
15263;BME280;7733;51.554;13.590;2022-07-29T01:15:06;100615.03;;;18.01;53.44
15263;BME280;7733;51.554;13.590;2022-07-29T01:17:40;100603.91;;;18.76;50.76
15263;BME280;7733;51.554;13.590;2022-07-29T01:20:23;100601.31;;;18.95;49.88
15263;BME280;7733;51.554;13.590;2022-07-29T01:26:10;100592.53;;;18.52;51.30
15263;BME280;7733;51.554;13.590;2022-07-29T01:29:22;100591.25;;;18.82;50.46
15263;BME280;7733;51.554;13.590;2022-07-29T01:32:20;100584.38;;;18.36;51.78
15263;BME280;7733;51.554;13.590;2022-07-29T01:35:08;100586.03;;;18.39;51.70
15263;BME280;7733;51.554;13.590;2022-07-29T01:38:12;100583.84;;;17.86;53.40
15263;BME280;7733;51.554;13.590;2022-07-29T01:40:55;100586.66;;;17.81;53.73
15263;BME280;7733;51.554;13.590;2022-07-29T01:43:41;100589.09;;;18.50;51.30
15263;BME280;7733;51.554;13.590;2022-07-29T01:46:14;100585.97;;;18.40;51.43
15263;BME280;7733;51.554;13.590;2022-07-29T01:48:48;100581.06;;;18.31;51.79
15263;BME280;7733;51.554;13.590;2022-07-29T01:51:31;100584.22;;;18.19;52.55
15263;BME280;7733;51.554;13.590;2022-07-29T01:54:12;100582.63;;;18.15;52.77
15263;BME280;7733;51.554;13.590;2022-07-29T01:56:42;100587.25;;;17.89;53.51
15263;BME280;7733;51.554;13.590;2022-07-29T01:59:10;100585.69;;;18.06;52.97
15263;BME280;7733;51.554;13.590;2022-07-29T02:01:39;100584.16;;;18.20;52.53
15263;BME280;7733;51.554;13.590;2022-07-29T02:04:09;100585.44;;;17.90;53.58
15263;BME280;7733;51.554;13.590;2022-07-29T02:06:38;100588.75;;;17.51;54.98
15263;BME280;7733;51.554;13.590;2022-07-29T02:09:08;100580.09;;;17.70;54.24
15263;BME280;7733;51.554;13.590;2022-07-29T02:11:37;100573.47;;;17.34;55.24
15263;BME280;7733;51.554;13.590;2022-07-29T02:14:04;100580.25;;;17.65;54.74
15263;BME280;7733;51.554;13.590;2022-07-29T02:16:33;100579.66;;;17.57;54.59
15263;BME280;7733;51.554;13.590;2022-07-29T02:19:02;100583.13;;;17.59;54.64
15263;BME280;7733;51.554;13.590;2022-07-29T02:21:31;100585.63;;;17.85;53.74
15263;BME280;7733;51.554;13.590;2022-07-29T02:24:01;100575.81;;;17.87;53.89
15263;BME280;7733;51.554;13.590;2022-07-29T02:26:30;100579.22;;;17.91;53.76
15263;BME280;7733;51.554;13.590;2022-07-29T02:29:00;100586.25;;;17.70;54.26
15263;BME280;7733;51.554;13.590;2022-07-29T02:31:32;100590.78;;;17.45;55.12
15263;BME280;7733;51.554;13.590;2022-07-29T02:34:01;100589.75;;;17.25;55.78
15263;BME280;7733;51.554;13.590;2022-07-29T02:36:30;100595.81;;;16.81;57.42
15263;BME280;7733;51.554;13.590;2022-07-29T02:38:58;100597.22;;;16.91;57.29
15263;BME280;7733;51.554;13.590;2022-07-29T02:41:48;100596.28;;;16.68;58.49
15263;BME280;7733;51.554;13.590;2022-07-29T02:44:19;100587.97;;;17.26;56.56
15263;BME280;7733;51.554;13.590;2022-07-29T02:49:41;100602.47;;;16.92;57.90
15263;BME280;7733;51.554;13.590;2022-07-29T02:52:21;100588.47;;;17.57;55.31
15263;BME280;7733;51.554;13.590;2022-07-29T02:55:04;100593.88;;;18.00;53.29
15263;BME280;7733;51.554;13.590;2022-07-29T02:57:48;100582.69;;;18.13;52.42
15263;BME280;7733;51.554;13.590;2022-07-29T03:00:15;100582.06;;;18.29;51.65
15263;BME280;7733;51.554;13.590;2022-07-29T03:02:45;100586.78;;;17.78;53.53
15263;BME280;7733;51.554;13.590;2022-07-29T03:05:17;100587.72;;;17.77;53.52
15263;BME280;7733;51.554;13.590;2022-07-29T03:07:48;100584.50;;;18.13;52.41
15263;BME280;7733;51.554;13.590;2022-07-29T03:10:15;100579.09;;;18.14;52.02
15263;BME280;7733;51.554;13.590;2022-07-29T03:12:42;100584.22;;;18.19;52.04
15263;BME280;7733;51.554;13.590;2022-07-29T03:15:09;100579.19;;;18.13;52.08
15263;BME280;7733;51.554;13.590;2022-07-29T03:17:36;100574.13;;;18.07;52.20
15263;BME280;7733;51.554;13.590;2022-07-29T03:20:03;100582.91;;;18.09;52.07
15263;BME280;7733;51.554;13.590;2022-07-29T03:22:30;100577.38;;;18.13;52.02
15263;BME280;7733;51.554;13.590;2022-07-29T03:24:55;100587.50;;;18.26;51.35
15263;BME280;7733;51.554;13.590;2022-07-29T03:27:21;100584.78;;;18.27;51.44
15263;BME280;7733;51.554;13.590;2022-07-29T03:29:47;100581.66;;;18.38;51.26
15263;BME280;7733;51.554;13.590;2022-07-29T03:32:12;100588.66;;;18.18;51.85
15263;BME280;7733;51.554;13.590;2022-07-29T03:34:38;100587.75;;;18.40;51.03
15263;BME280;7733;51.554;13.590;2022-07-29T03:37:06;100583.84;;;18.48;50.44
15263;BME280;7733;51.554;13.590;2022-07-29T03:39:38;100572.16;;;18.52;51.09
15263;BME280;7733;51.554;13.590;2022-07-29T03:42:08;100565.03;;;18.53;51.31
15263;BME280;7733;51.554;13.590;2022-07-29T03:44:36;100570.44;;;18.51;51.36
15263;BME280;7733;51.554;13.590;2022-07-29T03:47:06;100566.41;;;18.62;50.86
15263;BME280;7733;51.554;13.590;2022-07-29T03:49:37;100567.13;;;18.46;51.25
15263;BME280;7733;51.554;13.590;2022-07-29T03:52:04;100574.94;;;18.09;52.56
15263;BME280;7733;51.554;13.590;2022-07-29T03:54:30;100570.28;;;18.14;52.64
15263;BME280;7733;51.554;13.590;2022-07-29T03:57:01;100569.75;;;18.06;52.96
15263;BME280;7733;51.554;13.590;2022-07-29T03:59:27;100570.38;;;18.33;51.73
15263;BME280;7733;51.554;13.590;2022-07-29T04:01:55;100569.03;;;18.02;52.54
15263;BME280;7733;51.554;13.590;2022-07-29T04:04:21;100562.41;;;17.90;53.54
15263;BME280;7733;51.554;13.590;2022-07-29T04:06:47;100565.69;;;17.75;53.75
15263;BME280;7733;51.554;13.590;2022-07-29T04:09:14;100570.41;;;18.11;52.43
15263;BME280;7733;51.554;13.590;2022-07-29T04:11:41;100564.97;;;18.34;51.96
15263;BME280;7733;51.554;13.590;2022-07-29T04:14:07;100565.75;;;17.96;53.77
15263;BME280;7733;51.554;13.590;2022-07-29T04:16:33;100564.09;;;17.71;55.23
15263;BME280;7733;51.554;13.590;2022-07-29T04:18:58;100577.88;;;16.89;58.10
15263;BME280;7733;51.554;13.590;2022-07-29T04:21:25;100560.63;;;16.52;58.96
15263;BME280;7733;51.554;13.590;2022-07-29T04:23:50;100572.00;;;17.27;56.54
15263;BME280;7733;51.554;13.590;2022-07-29T04:26:17;100570.34;;;17.70;55.10
15263;BME280;7733;51.554;13.590;2022-07-29T04:28:44;100570.59;;;17.17;56.52
15263;BME280;7733;51.554;13.590;2022-07-29T04:31:11;100565.59;;;17.99;53.67
15263;BME280;7733;51.554;13.590;2022-07-29T04:33:37;100566.06;;;17.88;54.10
15263;BME280;7733;51.554;13.590;2022-07-29T04:36:03;100573.78;;;17.94;53.87
15263;BME280;7733;51.554;13.590;2022-07-29T04:38:29;100576.53;;;18.13;53.35
15263;BME280;7733;51.554;13.590;2022-07-29T04:40:54;100580.72;;;17.53;55.62
15263;BME280;7733;51.554;13.590;2022-07-29T04:43:20;100579.41;;;17.86;54.57
15263;BME280;7733;51.554;13.590;2022-07-29T04:45:46;100576.94;;;17.37;56.37
15263;BME280;7733;51.554;13.590;2022-07-29T04:48:11;100581.25;;;17.61;55.74
15263;BME280;7733;51.554;13.590;2022-07-29T04:50:40;100581.03;;;17.45;56.37
15263;BME280;7733;51.554;13.590;2022-07-29T04:53:06;100568.22;;;17.78;55.09
15263;BME280;7733;51.554;13.590;2022-07-29T04:55:33;100569.06;;;18.01;54.68
15263;BME280;7733;51.554;13.590;2022-07-29T04:57:58;100572.78;;;17.97;55.52
15263;BME280;7733;51.554;13.590;2022-07-29T05:00:24;100578.94;;;17.97;55.57
15263;BME280;7733;51.554;13.590;2022-07-29T05:02:50;100579.84;;;18.38;53.85
15263;BME280;7733;51.554;13.590;2022-07-29T05:05:15;100581.13;;;17.87;56.59
15263;BME280;7733;51.554;13.590;2022-07-29T05:07:41;100576.41;;;18.36;54.38
15263;BME280;7733;51.554;13.590;2022-07-29T05:10:09;100569.91;;;18.43;54.49
15263;BME280;7733;51.554;13.590;2022-07-29T05:12:35;100566.22;;;18.68;52.70
15263;BME280;7733;51.554;13.590;2022-07-29T05:15:00;100576.47;;;18.75;52.45
15263;BME280;7733;51.554;13.590;2022-07-29T05:17:26;100563.38;;;18.91;51.97
15263;BME280;7733;51.554;13.590;2022-07-29T05:19:52;100567.69;;;18.94;51.82
15263;BME280;7733;51.554;13.590;2022-07-29T05:22:21;100558.69;;;18.96;51.57
15263;BME280;7733;51.554;13.590;2022-07-29T05:24:47;100563.44;;;18.90;51.77
15263;BME280;7733;51.554;13.590;2022-07-29T05:27:12;100556.19;;;18.93;51.38
15263;BME280;7733;51.554;13.590;2022-07-29T05:29:38;100560.50;;;18.96;51.69
15263;BME280;7733;51.554;13.590;2022-07-29T05:32:04;100560.28;;;19.19;50.66
15263;BME280;7733;51.554;13.590;2022-07-29T05:34:30;100559.56;;;19.34;50.19
15263;BME280;7733;51.554;13.590;2022-07-29T05:36:57;100563.09;;;19.35;50.21
15263;BME280;7733;51.554;13.590;2022-07-29T05:39:23;100560.72;;;19.29;50.28
15263;BME280;7733;51.554;13.590;2022-07-29T05:41:49;100563.41;;;19.29;50.24
15263;BME280;7733;51.554;13.590;2022-07-29T05:44:15;100568.72;;;19.29;50.26
15263;BME280;7733;51.554;13.590;2022-07-29T05:46:41;100556.69;;;19.58;49.41
15263;BME280;7733;51.554;13.590;2022-07-29T05:49:06;100564.88;;;19.72;49.13
15263;BME280;7733;51.554;13.590;2022-07-29T05:51:33;100565.53;;;19.58;49.73
15263;BME280;7733;51.554;13.590;2022-07-29T05:53:59;100560.03;;;19.80;49.40
15263;BME280;7733;51.554;13.590;2022-07-29T05:56:25;100558.97;;;20.01;48.87
15263;BME280;7733;51.554;13.590;2022-07-29T05:58:51;100565.78;;;19.54;50.08
15263;BME280;7733;51.554;13.590;2022-07-29T06:01:17;100552.09;;;19.61;50.11
15263;BME280;7733;51.554;13.590;2022-07-29T06:03:42;100558.28;;;19.62;50.23
15263;BME280;7733;51.554;13.590;2022-07-29T06:06:08;100553.00;;;19.79;49.72
15263;BME280;7733;51.554;13.590;2022-07-29T06:08:35;100556.44;;;19.81;49.95
15263;BME280;7733;51.554;13.590;2022-07-29T06:11:02;100555.84;;;20.28;48.60
15263;BME280;7733;51.554;13.590;2022-07-29T06:13:29;100569.25;;;20.26;48.94
15263;BME280;7733;51.554;13.590;2022-07-29T06:15:54;100569.09;;;20.29;48.19
15263;BME280;7733;51.554;13.590;2022-07-29T06:18:20;100559.41;;;20.46;47.79
15263;BME280;7733;51.554;13.590;2022-07-29T06:20:52;100566.47;;;20.47;47.41
15263;BME280;7733;51.554;13.590;2022-07-29T06:23:19;100561.56;;;20.38;47.81
15263;BME280;7733;51.554;13.590;2022-07-29T06:25:46;100561.44;;;20.41;47.64
15263;BME280;7733;51.554;13.590;2022-07-29T06:28:11;100566.44;;;20.64;47.07
15263;BME280;7733;51.554;13.590;2022-07-29T06:30:38;100558.47;;;20.80;46.93
15263;BME280;7733;51.554;13.590;2022-07-29T06:33:03;100563.28;;;20.73;46.61
15263;BME280;7733;51.554;13.590;2022-07-29T06:35:29;100564.13;;;20.74;46.79
15263;BME280;7733;51.554;13.590;2022-07-29T06:37:55;100568.31;;;20.95;46.11
15263;BME280;7733;51.554;13.590;2022-07-29T06:40:21;100570.47;;;20.88;46.34
15263;BME280;7733;51.554;13.590;2022-07-29T06:43:05;100576.94;;;21.00;45.82
15263;BME280;7733;51.554;13.590;2022-07-29T06:45:34;100572.22;;;21.21;45.79
15263;BME280;7733;51.554;13.590;2022-07-29T06:48:00;100565.31;;;21.34;45.58
15263;BME280;7733;51.554;13.590;2022-07-29T06:50:25;100575.31;;;21.46;45.22
15263;BME280;7733;51.554;13.590;2022-07-29T06:52:51;100578.56;;;21.51;44.84
15263;BME280;7733;51.554;13.590;2022-07-29T06:55:17;100583.81;;;21.69;44.91
15263;BME280;7733;51.554;13.590;2022-07-29T06:57:45;100585.34;;;21.41;45.49
15263;BME280;7733;51.554;13.590;2022-07-29T07:00:12;100585.78;;;21.34;45.53
15263;BME280;7733;51.554;13.590;2022-07-29T07:02:38;100582.34;;;21.79;44.92
15263;BME280;7733;51.554;13.590;2022-07-29T07:05:04;100584.75;;;21.83;44.86
15263;BME280;7733;51.554;13.590;2022-07-29T07:07:31;100573.53;;;21.93;44.85
15263;BME280;7733;51.554;13.590;2022-07-29T07:09:56;100584.91;;;21.80;44.31
15263;BME280;7733;51.554;13.590;2022-07-29T07:12:22;100582.09;;;21.68;44.92
15263;BME280;7733;51.554;13.590;2022-07-29T07:14:48;100582.69;;;22.04;44.59
15263;BME280;7733;51.554;13.590;2022-07-29T07:17:13;100582.13;;;22.13;44.36
15263;BME280;7733;51.554;13.590;2022-07-29T07:19:39;100585.94;;;22.09;44.22
15263;BME280;7733;51.554;13.590;2022-07-29T07:22:05;100591.50;;;22.21;44.25
15263;BME280;7733;51.554;13.590;2022-07-29T07:24:30;100583.00;;;22.58;43.83
15263;BME280;7733;51.554;13.590;2022-07-29T07:26:56;100570.97;;;22.51;43.90
15263;BME280;7733;51.554;13.590;2022-07-29T07:29:22;100572.75;;;22.36;44.01
15263;BME280;7733;51.554;13.590;2022-07-29T07:31:47;100567.09;;;22.71;43.53
15263;BME280;7733;51.554;13.590;2022-07-29T07:34:13;100562.31;;;22.76;43.30
15263;BME280;7733;51.554;13.590;2022-07-29T07:36:38;100555.69;;;22.53;43.31
15263;BME280;7733;51.554;13.590;2022-07-29T07:39:04;100566.78;;;22.75;43.05
15263;BME280;7733;51.554;13.590;2022-07-29T07:41:30;100562.84;;;22.83;42.68
15263;BME280;7733;51.554;13.590;2022-07-29T07:43:56;100567.13;;;22.85;42.86
15263;BME280;7733;51.554;13.590;2022-07-29T07:46:22;100557.88;;;23.05;42.69
15263;BME280;7733;51.554;13.590;2022-07-29T07:48:47;100568.94;;;22.99;42.60
15263;BME280;7733;51.554;13.590;2022-07-29T07:51:13;100561.84;;;22.98;42.72
15263;BME280;7733;51.554;13.590;2022-07-29T07:53:38;100556.28;;;23.44;42.17
15263;BME280;7733;51.554;13.590;2022-07-29T07:56:04;100547.09;;;23.48;42.03
15263;BME280;7733;51.554;13.590;2022-07-29T07:58:32;100550.91;;;23.44;41.90
15263;BME280;7733;51.554;13.590;2022-07-29T08:00:57;100552.47;;;23.33;42.28
15263;BME280;7733;51.554;13.590;2022-07-29T08:03:23;100547.94;;;23.48;42.11
15263;BME280;7733;51.554;13.590;2022-07-29T08:05:49;100548.06;;;23.74;41.64
15263;BME280;7733;51.554;13.590;2022-07-29T08:08:17;100539.38;;;23.70;41.41
15263;BME280;7733;51.554;13.590;2022-07-29T08:10:43;100546.19;;;23.88;41.36
15263;BME280;7733;51.554;13.590;2022-07-29T08:13:19;100542.34;;;23.92;41.06
15263;BME280;7733;51.554;13.590;2022-07-29T08:15:45;100533.78;;;24.00;40.75
15263;BME280;7733;51.554;13.590;2022-07-29T08:18:13;100538.81;;;24.32;40.65
15263;BME280;7733;51.554;13.590;2022-07-29T08:20:39;100532.81;;;24.01;40.62
15263;BME280;7733;51.554;13.590;2022-07-29T08:23:07;100542.81;;;24.12;40.54
15263;BME280;7733;51.554;13.590;2022-07-29T08:25:36;100538.59;;;24.35;40.10
15263;BME280;7733;51.554;13.590;2022-07-29T08:28:02;100539.03;;;24.29;40.31
15263;BME280;7733;51.554;13.590;2022-07-29T08:30:28;100535.63;;;24.52;39.90
15263;BME280;7733;51.554;13.590;2022-07-29T08:32:54;100543.22;;;24.58;40.06
15263;BME280;7733;51.554;13.590;2022-07-29T08:35:21;100548.28;;;24.88;39.57
15263;BME280;7733;51.554;13.590;2022-07-29T08:37:47;100542.47;;;24.81;39.67
15263;BME280;7733;51.554;13.590;2022-07-29T08:40:13;100544.81;;;24.35;39.99
15263;BME280;7733;51.554;13.590;2022-07-29T08:42:40;100536.91;;;24.59;39.58
15263;BME280;7733;51.554;13.590;2022-07-29T08:45:06;100538.09;;;24.68;39.74
15263;BME280;7733;51.554;13.590;2022-07-29T08:47:33;100539.59;;;24.72;39.62
15263;BME280;7733;51.554;13.590;2022-07-29T08:49:59;100539.06;;;24.67;39.69
15263;BME280;7733;51.554;13.590;2022-07-29T08:52:26;100542.16;;;24.73;39.01
15263;BME280;7733;51.554;13.590;2022-07-29T08:54:52;100532.84;;;24.66;39.48
15263;BME280;7733;51.554;13.590;2022-07-29T08:57:19;100530.56;;;24.47;39.57
15263;BME280;7733;51.554;13.590;2022-07-29T08:59:48;100530.91;;;24.68;39.68
15263;BME280;7733;51.554;13.590;2022-07-29T09:02:28;100529.50;;;24.75;39.54
15263;BME280;7733;51.554;13.590;2022-07-29T09:04:56;100527.88;;;24.85;39.36
15263;BME280;7733;51.554;13.590;2022-07-29T09:07:25;100525.06;;;25.12;38.94
15263;BME280;7733;51.554;13.590;2022-07-29T09:09:51;100519.28;;;24.80;39.24
15263;BME280;7733;51.554;13.590;2022-07-29T09:12:16;100507.84;;;24.66;39.37
15263;BME280;7733;51.554;13.590;2022-07-29T09:14:42;100508.66;;;24.79;39.08
15263;BME280;7733;51.554;13.590;2022-07-29T09:17:08;100516.06;;;24.63;39.55
15263;BME280;7733;51.554;13.590;2022-07-29T09:19:36;100506.72;;;24.94;38.91
15263;BME280;7733;51.554;13.590;2022-07-29T09:22:05;100514.25;;;25.01;38.58
15263;BME280;7733;51.554;13.590;2022-07-29T09:24:46;100516.41;;;25.33;38.66
15263;BME280;7733;51.554;13.590;2022-07-29T09:27:24;100508.53;;;25.42;38.37
15263;BME280;7733;51.554;13.590;2022-07-29T09:30:06;100514.06;;;25.28;38.58
15263;BME280;7733;51.554;13.590;2022-07-29T09:32:33;100513.84;;;25.68;38.27
15263;BME280;7733;51.554;13.590;2022-07-29T09:35:24;100511.69;;;26.08;37.72
15263;BME280;7733;51.554;13.590;2022-07-29T09:37:50;100512.56;;;26.20;37.36
15263;BME280;7733;51.554;13.590;2022-07-29T09:40:28;100507.81;;;26.23;36.95
15263;BME280;7733;51.554;13.590;2022-07-29T09:42:54;100507.34;;;26.29;36.84
15263;BME280;7733;51.554;13.590;2022-07-29T09:45:31;100499.31;;;26.52;36.92
15263;BME280;7733;51.554;13.590;2022-07-29T09:47:57;100499.03;;;26.32;36.61
15263;BME280;7733;51.554;13.590;2022-07-29T09:50:55;100495.34;;;26.33;36.71
15263;BME280;7733;51.554;13.590;2022-07-29T09:53:36;100502.97;;;26.40;36.62
15263;BME280;7733;51.554;13.590;2022-07-29T09:56:03;100492.25;;;26.73;36.44
15263;BME280;7733;51.554;13.590;2022-07-29T09:58:29;100500.22;;;26.86;36.33
15263;BME280;7733;51.554;13.590;2022-07-29T10:00:56;100510.38;;;27.05;36.16
15263;BME280;7733;51.554;13.590;2022-07-29T10:03:22;100496.09;;;27.47;35.31
15263;BME280;7733;51.554;13.590;2022-07-29T10:06:05;100486.53;;;27.86;34.90
15263;BME280;7733;51.554;13.590;2022-07-29T10:08:31;100494.25;;;27.48;35.16
15263;BME280;7733;51.554;13.590;2022-07-29T10:11:14;100492.38;;;27.92;34.87
15263;BME280;7733;51.554;13.590;2022-07-29T10:13:42;100491.69;;;28.31;34.32
15263;BME280;7733;51.554;13.590;2022-07-29T10:16:09;100476.22;;;28.12;34.07
15263;BME280;7733;51.554;13.590;2022-07-29T10:18:35;100488.41;;;28.48;33.93
15263;BME280;7733;51.554;13.590;2022-07-29T10:21:03;100482.34;;;28.35;34.13
15263;BME280;7733;51.554;13.590;2022-07-29T10:23:30;100481.72;;;28.53;34.11
15263;BME280;7733;51.554;13.590;2022-07-29T10:25:56;100477.63;;;28.58;33.56
15263;BME280;7733;51.554;13.590;2022-07-29T10:28:22;100471.19;;;28.80;33.40
15263;BME280;7733;51.554;13.590;2022-07-29T10:30:51;100472.41;;;28.97;33.14
15263;BME280;7733;51.554;13.590;2022-07-29T10:36:40;100474.13;;;29.48;33.01
15263;BME280;7733;51.554;13.590;2022-07-29T10:42:15;100459.16;;;30.21;31.47
15263;BME280;7733;51.554;13.590;2022-07-29T10:44:43;100462.72;;;30.21;30.88
15263;BME280;7733;51.554;13.590;2022-07-29T10:47:23;100462.84;;;30.20;31.82
15263;BME280;7733;51.554;13.590;2022-07-29T10:50:03;100460.34;;;30.09;31.62
15263;BME280;7733;51.554;13.590;2022-07-29T10:52:53;100459.16;;;30.21;31.15
15263;BME280;7733;51.554;13.590;2022-07-29T10:55:40;100444.22;;;30.54;30.79
15263;BME280;7733;51.554;13.590;2022-07-29T10:58:17;100449.94;;;30.04;31.30
15263;BME280;7733;51.554;13.590;2022-07-29T11:00:43;100456.66;;;30.47;30.80
15263;BME280;7733;51.554;13.590;2022-07-29T11:03:09;100453.47;;;30.98;30.38
15263;BME280;7733;51.554;13.590;2022-07-29T11:05:56;100445.66;;;30.68;30.05
15263;BME280;7733;51.554;13.590;2022-07-29T11:08:23;100443.94;;;31.22;30.31
15263;BME280;7733;51.554;13.590;2022-07-29T11:10:51;100452.44;;;30.99;30.09
15263;BME280;7733;51.554;13.590;2022-07-29T11:16:09;100446.44;;;31.05;29.53
15263;BME280;7733;51.554;13.590;2022-07-29T11:18:34;100446.19;;;31.26;29.34
15263;BME280;7733;51.554;13.590;2022-07-29T11:21:00;100436.19;;;31.62;29.22
15263;BME280;7733;51.554;13.590;2022-07-29T11:23:32;100438.84;;;31.54;28.99
15263;BME280;7733;51.554;13.590;2022-07-29T11:26:16;100443.34;;;31.45;28.80
15263;BME280;7733;51.554;13.590;2022-07-29T11:29:03;100431.53;;;31.37;28.78
15263;BME280;7733;51.554;13.590;2022-07-29T11:31:35;100425.59;;;31.33;29.06
15263;BME280;7733;51.554;13.590;2022-07-29T11:34:31;100436.28;;;31.35;29.29
15263;BME280;7733;51.554;13.590;2022-07-29T11:39:38;100428.03;;;31.62;28.46
15263;BME280;7733;51.554;13.590;2022-07-29T11:45:12;100428.63;;;31.48;28.80
15263;BME280;7733;51.554;13.590;2022-07-29T11:47:49;100419.25;;;31.25;29.47
15263;BME280;7733;51.554;13.590;2022-07-29T11:53:13;100422.69;;;32.06;28.67
15263;BME280;7733;51.554;13.590;2022-07-29T11:55:40;100420.25;;;32.03;28.75
15263;BME280;7733;51.554;13.590;2022-07-29T11:58:07;100405.97;;;32.45;28.23
15263;BME280;7733;51.554;13.590;2022-07-29T12:00:40;100408.88;;;32.51;27.66
15263;BME280;7733;51.554;13.590;2022-07-29T12:03:10;100408.03;;;31.99;28.18
15263;BME280;7733;51.554;13.590;2022-07-29T12:05:44;100402.16;;;32.29;28.12
15263;BME280;7733;51.554;13.590;2022-07-29T12:08:22;100406.94;;;32.35;27.70
15263;BME280;7733;51.554;13.590;2022-07-29T12:10:49;100411.78;;;31.80;28.50
15263;BME280;7733;51.554;13.590;2022-07-29T12:13:19;100411.00;;;32.14;27.67
15263;BME280;7733;51.554;13.590;2022-07-29T12:15:56;100415.75;;;31.86;28.27
15263;BME280;7733;51.554;13.590;2022-07-29T12:18:22;100407.59;;;32.29;27.63
15263;BME280;7733;51.554;13.590;2022-07-29T12:20:56;100400.13;;;32.05;27.65
15263;BME280;7733;51.554;13.590;2022-07-29T12:23:22;100397.63;;;32.20;28.99
15263;BME280;7733;51.554;13.590;2022-07-29T12:25:48;100405.78;;;31.94;28.93
15263;BME280;7733;51.554;13.590;2022-07-29T12:28:14;100399.13;;;32.41;28.35
15263;BME280;7733;51.554;13.590;2022-07-29T12:30:47;100403.25;;;32.45;27.50
15263;BME280;7733;51.554;13.590;2022-07-29T12:33:28;100396.97;;;32.44;28.07
15263;BME280;7733;51.554;13.590;2022-07-29T12:35:59;100404.38;;;32.68;27.49
15263;BME280;7733;51.554;13.590;2022-07-29T12:38:25;100393.97;;;31.77;28.42
15263;BME280;7733;51.554;13.590;2022-07-29T12:40:53;100384.19;;;32.36;28.40
15263;BME280;7733;51.554;13.590;2022-07-29T12:43:22;100388.03;;;32.60;27.65
15263;BME280;7733;51.554;13.590;2022-07-29T12:45:51;100387.63;;;32.21;28.11
15263;BME280;7733;51.554;13.590;2022-07-29T12:48:35;100375.44;;;32.59;27.47
15263;BME280;7733;51.554;13.590;2022-07-29T12:51:03;100384.69;;;32.74;27.99
15263;BME280;7733;51.554;13.590;2022-07-29T12:53:29;100377.22;;;32.34;28.25
15263;BME280;7733;51.554;13.590;2022-07-29T12:55:57;100368.03;;;32.77;27.88
15263;BME280;7733;51.554;13.590;2022-07-29T12:58:36;100379.94;;;32.08;28.33
15263;BME280;7733;51.554;13.590;2022-07-29T13:01:15;100381.38;;;32.54;27.77
15263;BME280;7733;51.554;13.590;2022-07-29T13:03:57;100378.28;;;31.71;28.22
15263;BME280;7733;51.554;13.590;2022-07-29T13:06:43;100370.69;;;32.53;27.71
15263;BME280;7733;51.554;13.590;2022-07-29T13:09:18;100365.06;;;32.20;28.66
15263;BME280;7733;51.554;13.590;2022-07-29T13:11:47;100373.03;;;32.48;28.18
15263;BME280;7733;51.554;13.590;2022-07-29T13:17:07;100366.63;;;32.57;28.06
15263;BME280;7733;51.554;13.590;2022-07-29T13:20:05;100363.66;;;32.42;28.15
15263;BME280;7733;51.554;13.590;2022-07-29T13:22:31;100354.56;;;33.18;27.05
15263;BME280;7733;51.554;13.590;2022-07-29T13:25:00;100352.88;;;33.17;27.50
15263;BME280;7733;51.554;13.590;2022-07-29T13:27:33;100357.09;;;32.87;27.30
15263;BME280;7733;51.554;13.590;2022-07-29T13:30:01;100355.47;;;33.35;26.47